sensor_id;sensor_type;location;lat;lon;timestamp;P1;durP1;ratioP1;P2;durP2;ratioP2
12177;SDS011;6152;48.728;9.256;2023-05-20T00:00:43;7.28;;;3.55;;
12177;SDS011;6152;48.728;9.256;2023-05-20T00:03:13;4.65;;;3.75;;
12177;SDS011;6152;48.728;9.256;2023-05-20T00:05:41;5.18;;;3.38;;
12177;SDS011;6152;48.728;9.256;2023-05-20T00:08:09;7.82;;;3.70;;
12177;SDS011;6152;48.728;9.256;2023-05-20T00:10:35;5.03;;;3.33;;
12177;SDS011;6152;48.728;9.256;2023-05-20T00:13:02;3.60;;;3.17;;
12177;SDS011;6152;48.728;9.256;2023-05-20T00:15:28;4.43;;;3.42;;
12177;SDS011;6152;48.728;9.256;2023-05-20T00:17:55;3.67;;;3.22;;
12177;SDS011;6152;48.728;9.256;2023-05-20T00:20:21;4.22;;;3.40;;
12177;SDS011;6152;48.728;9.256;2023-05-20T00:22:47;8.60;;;3.30;;
12177;SDS011;6152;48.728;9.256;2023-05-20T00:25:13;6.47;;;3.50;;
12177;SDS011;6152;48.728;9.256;2023-05-20T00:27:40;6.15;;;3.88;;
12177;SDS011;6152;48.728;9.256;2023-05-20T00:30:06;6.93;;;3.80;;
12177;SDS011;6152;48.728;9.256;2023-05-20T00:32:33;3.80;;;3.38;;
12177;SDS011;6152;48.728;9.256;2023-05-20T00:34:59;5.05;;;3.88;;
12177;SDS011;6152;48.728;9.256;2023-05-20T00:37:26;6.40;;;4.10;;
12177;SDS011;6152;48.728;9.256;2023-05-20T00:39:52;5.38;;;4.18;;
12177;SDS011;6152;48.728;9.256;2023-05-20T00:42:21;4.47;;;3.92;;
12177;SDS011;6152;48.728;9.256;2023-05-20T00:44:51;5.32;;;3.90;;
12177;SDS011;6152;48.728;9.256;2023-05-20T00:47:18;6.10;;;3.83;;
12177;SDS011;6152;48.728;9.256;2023-05-20T00:49:47;6.88;;;4.05;;
12177;SDS011;6152;48.728;9.256;2023-05-20T00:52:16;5.05;;;3.80;;
12177;SDS011;6152;48.728;9.256;2023-05-20T00:54:42;4.10;;;3.70;;
12177;SDS011;6152;48.728;9.256;2023-05-20T00:57:10;5.28;;;3.50;;
12177;SDS011;6152;48.728;9.256;2023-05-20T00:59:37;4.13;;;3.70;;
12177;SDS011;6152;48.728;9.256;2023-05-20T01:02:04;5.55;;;3.88;;
12177;SDS011;6152;48.728;9.256;2023-05-20T01:04:31;3.53;;;3.22;;
12177;SDS011;6152;48.728;9.256;2023-05-20T01:06:58;5.07;;;3.45;;
12177;SDS011;6152;48.728;9.256;2023-05-20T01:09:25;4.65;;;3.90;;
12177;SDS011;6152;48.728;9.256;2023-05-20T01:12:04;5.13;;;3.63;;
12177;SDS011;6152;48.728;9.256;2023-05-20T01:14:35;4.93;;;3.60;;
12177;SDS011;6152;48.728;9.256;2023-05-20T01:17:07;3.67;;;3.38;;
12177;SDS011;6152;48.728;9.256;2023-05-20T01:19:43;5.57;;;3.53;;
12177;SDS011;6152;48.728;9.256;2023-05-20T01:22:10;4.22;;;3.60;;
12177;SDS011;6152;48.728;9.256;2023-05-20T01:24:46;3.78;;;3.17;;
12177;SDS011;6152;48.728;9.256;2023-05-20T01:27:12;4.07;;;3.65;;
12177;SDS011;6152;48.728;9.256;2023-05-20T01:29:39;4.13;;;3.55;;
12177;SDS011;6152;48.728;9.256;2023-05-20T01:32:09;4.40;;;3.47;;
12177;SDS011;6152;48.728;9.256;2023-05-20T01:34:38;7.22;;;3.38;;
12177;SDS011;6152;48.728;9.256;2023-05-20T01:37:05;5.40;;;3.55;;
12177;SDS011;6152;48.728;9.256;2023-05-20T01:39:35;5.07;;;3.60;;
12177;SDS011;6152;48.728;9.256;2023-05-20T01:42:04;4.53;;;3.92;;
12177;SDS011;6152;48.728;9.256;2023-05-20T01:44:31;6.53;;;3.90;;
12177;SDS011;6152;48.728;9.256;2023-05-20T01:46:58;4.78;;;3.97;;
12177;SDS011;6152;48.728;9.256;2023-05-20T01:49:25;3.90;;;3.60;;
12177;SDS011;6152;48.728;9.256;2023-05-20T01:51:51;6.07;;;4.10;;
12177;SDS011;6152;48.728;9.256;2023-05-20T01:54:17;3.90;;;3.60;;
12177;SDS011;6152;48.728;9.256;2023-05-20T01:56:44;3.92;;;3.53;;
12177;SDS011;6152;48.728;9.256;2023-05-20T01:59:10;5.70;;;4.30;;
12177;SDS011;6152;48.728;9.256;2023-05-20T02:01:37;6.00;;;3.53;;
12177;SDS011;6152;48.728;9.256;2023-05-20T02:04:03;4.63;;;3.78;;
12177;SDS011;6152;48.728;9.256;2023-05-20T02:06:29;4.80;;;3.67;;
12177;SDS011;6152;48.728;9.256;2023-05-20T02:08:55;4.35;;;3.75;;
12177;SDS011;6152;48.728;9.256;2023-05-20T02:11:21;3.95;;;3.65;;
12177;SDS011;6152;48.728;9.256;2023-05-20T02:13:48;4.10;;;3.80;;
12177;SDS011;6152;48.728;9.256;2023-05-20T02:16:15;4.75;;;3.80;;
12177;SDS011;6152;48.728;9.256;2023-05-20T02:18:41;5.88;;;3.88;;
12177;SDS011;6152;48.728;9.256;2023-05-20T02:21:08;4.80;;;4.00;;
12177;SDS011;6152;48.728;9.256;2023-05-20T02:23:34;4.38;;;3.90;;
12177;SDS011;6152;48.728;9.256;2023-05-20T02:26:00;5.03;;;4.35;;
12177;SDS011;6152;48.728;9.256;2023-05-20T02:28:26;4.35;;;3.95;;
12177;SDS011;6152;48.728;9.256;2023-05-20T02:30:52;5.35;;;4.50;;
12177;SDS011;6152;48.728;9.256;2023-05-20T02:33:18;4.43;;;4.03;;
12177;SDS011;6152;48.728;9.256;2023-05-20T02:35:45;6.78;;;4.50;;
12177;SDS011;6152;48.728;9.256;2023-05-20T02:38:11;6.68;;;4.53;;
12177;SDS011;6152;48.728;9.256;2023-05-20T02:40:37;5.20;;;4.72;;
12177;SDS011;6152;48.728;9.256;2023-05-20T02:43:04;4.80;;;4.40;;
12177;SDS011;6152;48.728;9.256;2023-05-20T02:45:30;5.18;;;4.32;;
12177;SDS011;6152;48.728;9.256;2023-05-20T02:47:56;4.85;;;4.30;;
12177;SDS011;6152;48.728;9.256;2023-05-20T02:50:22;4.75;;;4.30;;
12177;SDS011;6152;48.728;9.256;2023-05-20T02:52:49;4.90;;;4.32;;
12177;SDS011;6152;48.728;9.256;2023-05-20T02:55:15;5.15;;;4.65;;
12177;SDS011;6152;48.728;9.256;2023-05-20T02:57:41;6.90;;;4.53;;
12177;SDS011;6152;48.728;9.256;2023-05-20T03:00:07;4.57;;;4.18;;
12177;SDS011;6152;48.728;9.256;2023-05-20T03:02:40;5.35;;;4.32;;
12177;SDS011;6152;48.728;9.256;2023-05-20T03:05:06;4.50;;;4.10;;
12177;SDS011;6152;48.728;9.256;2023-05-20T03:07:33;5.38;;;4.30;;
12177;SDS011;6152;48.728;9.256;2023-05-20T03:10:01;5.15;;;4.55;;
12177;SDS011;6152;48.728;9.256;2023-05-20T03:12:27;5.15;;;4.75;;
12177;SDS011;6152;48.728;9.256;2023-05-20T03:14:53;5.20;;;4.25;;
12177;SDS011;6152;48.728;9.256;2023-05-20T03:17:23;5.43;;;4.35;;
12177;SDS011;6152;48.728;9.256;2023-05-20T03:19:49;5.10;;;4.57;;
12177;SDS011;6152;48.728;9.256;2023-05-20T03:22:15;4.80;;;4.30;;
12177;SDS011;6152;48.728;9.256;2023-05-20T03:24:41;5.03;;;4.53;;
12177;SDS011;6152;48.728;9.256;2023-05-20T03:27:08;4.93;;;4.43;;
12177;SDS011;6152;48.728;9.256;2023-05-20T03:29:34;5.07;;;4.60;;
12177;SDS011;6152;48.728;9.256;2023-05-20T03:32:00;5.22;;;4.65;;
12177;SDS011;6152;48.728;9.256;2023-05-20T03:34:26;5.03;;;4.50;;
12177;SDS011;6152;48.728;9.256;2023-05-20T03:36:54;6.45;;;4.53;;
12177;SDS011;6152;48.728;9.256;2023-05-20T03:39:21;4.95;;;4.45;;
12177;SDS011;6152;48.728;9.256;2023-05-20T03:41:48;5.45;;;4.28;;
12177;SDS011;6152;48.728;9.256;2023-05-20T03:44:14;5.57;;;4.60;;
12177;SDS011;6152;48.728;9.256;2023-05-20T03:46:41;6.32;;;5.05;;
12177;SDS011;6152;48.728;9.256;2023-05-20T03:49:07;6.15;;;5.05;;
12177;SDS011;6152;48.728;9.256;2023-05-20T03:51:33;5.05;;;4.50;;
12177;SDS011;6152;48.728;9.256;2023-05-20T03:53:59;6.43;;;4.85;;
12177;SDS011;6152;48.728;9.256;2023-05-20T03:56:26;6.30;;;4.75;;
12177;SDS011;6152;48.728;9.256;2023-05-20T03:58:52;5.30;;;4.35;;
12177;SDS011;6152;48.728;9.256;2023-05-20T04:01:18;5.45;;;4.55;;
12177;SDS011;6152;48.728;9.256;2023-05-20T04:03:45;4.93;;;4.43;;
12177;SDS011;6152;48.728;9.256;2023-05-20T04:06:12;5.45;;;4.95;;
12177;SDS011;6152;48.728;9.256;2023-05-20T04:08:38;7.55;;;4.63;;
12177;SDS011;6152;48.728;9.256;2023-05-20T04:11:04;6.47;;;4.82;;
12177;SDS011;6152;48.728;9.256;2023-05-20T04:13:30;4.72;;;4.32;;
12177;SDS011;6152;48.728;9.256;2023-05-20T04:15:57;4.80;;;4.30;;
12177;SDS011;6152;48.728;9.256;2023-05-20T04:18:25;5.05;;;4.15;;
12177;SDS011;6152;48.728;9.256;2023-05-20T04:20:54;5.30;;;4.75;;
12177;SDS011;6152;48.728;9.256;2023-05-20T04:23:25;5.45;;;4.95;;
12177;SDS011;6152;48.728;9.256;2023-05-20T04:25:51;5.20;;;4.22;;
12177;SDS011;6152;48.728;9.256;2023-05-20T04:28:17;4.68;;;4.28;;
12177;SDS011;6152;48.728;9.256;2023-05-20T04:30:47;5.13;;;4.35;;
12177;SDS011;6152;48.728;9.256;2023-05-20T04:33:14;4.70;;;4.30;;
12177;SDS011;6152;48.728;9.256;2023-05-20T04:35:42;6.65;;;4.72;;
12177;SDS011;6152;48.728;9.256;2023-05-20T04:38:08;4.28;;;3.88;;
12177;SDS011;6152;48.728;9.256;2023-05-20T04:40:35;10.30;;;4.60;;
12177;SDS011;6152;48.728;9.256;2023-05-20T04:43:01;4.70;;;4.30;;
12177;SDS011;6152;48.728;9.256;2023-05-20T04:45:27;5.20;;;4.60;;
12177;SDS011;6152;48.728;9.256;2023-05-20T04:47:54;4.75;;;4.30;;
12177;SDS011;6152;48.728;9.256;2023-05-20T04:50:20;5.45;;;4.82;;
12177;SDS011;6152;48.728;9.256;2023-05-20T04:52:46;5.30;;;4.60;;
12177;SDS011;6152;48.728;9.256;2023-05-20T04:55:13;6.68;;;4.47;;
12177;SDS011;6152;48.728;9.256;2023-05-20T04:57:40;5.15;;;4.53;;
12177;SDS011;6152;48.728;9.256;2023-05-20T05:00:10;5.88;;;4.78;;
12177;SDS011;6152;48.728;9.256;2023-05-20T05:02:37;4.95;;;4.40;;
12177;SDS011;6152;48.728;9.256;2023-05-20T05:05:03;4.93;;;4.35;;
12177;SDS011;6152;48.728;9.256;2023-05-20T05:07:30;5.10;;;3.92;;
12177;SDS011;6152;48.728;9.256;2023-05-20T05:09:56;5.00;;;4.03;;
12177;SDS011;6152;48.728;9.256;2023-05-20T05:12:22;4.72;;;3.90;;
12177;SDS011;6152;48.728;9.256;2023-05-20T05:14:48;4.80;;;4.28;;
12177;SDS011;6152;48.728;9.256;2023-05-20T05:17:14;4.45;;;4.05;;
12177;SDS011;6152;48.728;9.256;2023-05-20T05:19:40;4.43;;;3.85;;
12177;SDS011;6152;48.728;9.256;2023-05-20T05:22:07;4.18;;;3.80;;
12177;SDS011;6152;48.728;9.256;2023-05-20T05:24:33;4.78;;;4.00;;
12177;SDS011;6152;48.728;9.256;2023-05-20T05:26:59;7.43;;;4.22;;
12177;SDS011;6152;48.728;9.256;2023-05-20T05:29:25;4.82;;;4.32;;
12177;SDS011;6152;48.728;9.256;2023-05-20T05:31:51;6.40;;;3.90;;
12177;SDS011;6152;48.728;9.256;2023-05-20T05:34:17;4.80;;;3.72;;
12177;SDS011;6152;48.728;9.256;2023-05-20T05:36:43;3.88;;;3.50;;
12177;SDS011;6152;48.728;9.256;2023-05-20T05:39:09;4.60;;;3.90;;
12177;SDS011;6152;48.728;9.256;2023-05-20T05:41:35;4.40;;;4.00;;
12177;SDS011;6152;48.728;9.256;2023-05-20T05:44:02;6.65;;;4.07;;
12177;SDS011;6152;48.728;9.256;2023-05-20T05:46:29;4.60;;;4.03;;
12177;SDS011;6152;48.728;9.256;2023-05-20T05:48:55;4.35;;;3.95;;
12177;SDS011;6152;48.728;9.256;2023-05-20T05:51:22;4.60;;;3.60;;
12177;SDS011;6152;48.728;9.256;2023-05-20T05:53:51;5.03;;;4.22;;
12177;SDS011;6152;48.728;9.256;2023-05-20T05:56:18;5.70;;;3.90;;
12177;SDS011;6152;48.728;9.256;2023-05-20T05:58:44;4.05;;;3.63;;
12177;SDS011;6152;48.728;9.256;2023-05-20T06:01:12;4.35;;;3.72;;
12177;SDS011;6152;48.728;9.256;2023-05-20T06:03:38;4.75;;;3.67;;
12177;SDS011;6152;48.728;9.256;2023-05-20T06:06:04;3.95;;;3.55;;
12177;SDS011;6152;48.728;9.256;2023-05-20T06:08:30;4.15;;;3.75;;
12177;SDS011;6152;48.728;9.256;2023-05-20T06:10:56;4.20;;;3.80;;
12177;SDS011;6152;48.728;9.256;2023-05-20T06:13:22;10.05;;;3.90;;
12177;SDS011;6152;48.728;9.256;2023-05-20T06:15:49;4.80;;;3.70;;
12177;SDS011;6152;48.728;9.256;2023-05-20T06:18:15;5.80;;;4.78;;
12177;SDS011;6152;48.728;9.256;2023-05-20T06:20:41;4.47;;;4.07;;
12177;SDS011;6152;48.728;9.256;2023-05-20T06:23:07;5.60;;;3.92;;
12177;SDS011;6152;48.728;9.256;2023-05-20T06:25:33;4.72;;;4.13;;
12177;SDS011;6152;48.728;9.256;2023-05-20T06:28:00;4.53;;;4.13;;
12177;SDS011;6152;48.728;9.256;2023-05-20T06:30:26;4.35;;;4.00;;
12177;SDS011;6152;48.728;9.256;2023-05-20T06:32:52;6.57;;;3.72;;
12177;SDS011;6152;48.728;9.256;2023-05-20T06:35:18;4.20;;;3.70;;
12177;SDS011;6152;48.728;9.256;2023-05-20T06:37:44;4.53;;;4.13;;
12177;SDS011;6152;48.728;9.256;2023-05-20T06:40:11;4.30;;;3.90;;
12177;SDS011;6152;48.728;9.256;2023-05-20T06:42:37;4.32;;;3.75;;
12177;SDS011;6152;48.728;9.256;2023-05-20T06:45:03;4.18;;;3.80;;
12177;SDS011;6152;48.728;9.256;2023-05-20T06:47:30;3.83;;;3.40;;
12177;SDS011;6152;48.728;9.256;2023-05-20T06:49:56;4.60;;;4.05;;
12177;SDS011;6152;48.728;9.256;2023-05-20T06:52:22;4.57;;;3.80;;
12177;SDS011;6152;48.728;9.256;2023-05-20T06:54:48;5.15;;;3.78;;
12177;SDS011;6152;48.728;9.256;2023-05-20T06:57:14;4.15;;;3.67;;
12177;SDS011;6152;48.728;9.256;2023-05-20T06:59:40;6.10;;;4.22;;
12177;SDS011;6152;48.728;9.256;2023-05-20T07:02:06;4.40;;;3.92;;
12177;SDS011;6152;48.728;9.256;2023-05-20T07:04:32;4.07;;;3.60;;
12177;SDS011;6152;48.728;9.256;2023-05-20T07:06:58;3.97;;;3.67;;
12177;SDS011;6152;48.728;9.256;2023-05-20T07:09:25;4.30;;;3.72;;
12177;SDS011;6152;48.728;9.256;2023-05-20T07:11:51;4.47;;;4.07;;
12177;SDS011;6152;48.728;9.256;2023-05-20T07:14:17;4.75;;;4.35;;
12177;SDS011;6152;48.728;9.256;2023-05-20T07:16:43;4.75;;;4.20;;
12177;SDS011;6152;48.728;9.256;2023-05-20T07:19:09;5.20;;;4.20;;
12177;SDS011;6152;48.728;9.256;2023-05-20T07:21:35;4.75;;;4.35;;
12177;SDS011;6152;48.728;9.256;2023-05-20T07:24:01;4.43;;;4.05;;
12177;SDS011;6152;48.728;9.256;2023-05-20T07:26:28;4.75;;;4.35;;
12177;SDS011;6152;48.728;9.256;2023-05-20T07:28:57;4.75;;;4.35;;
12177;SDS011;6152;48.728;9.256;2023-05-20T07:31:23;4.68;;;4.28;;
12177;SDS011;6152;48.728;9.256;2023-05-20T07:33:49;4.43;;;4.10;;
12177;SDS011;6152;48.728;9.256;2023-05-20T07:36:16;6.60;;;4.38;;
12177;SDS011;6152;48.728;9.256;2023-05-20T07:38:42;5.47;;;3.90;;
12177;SDS011;6152;48.728;9.256;2023-05-20T07:41:08;4.38;;;3.90;;
12177;SDS011;6152;48.728;9.256;2023-05-20T07:43:35;5.88;;;4.32;;
12177;SDS011;6152;48.728;9.256;2023-05-20T07:46:01;4.22;;;3.92;;
12177;SDS011;6152;48.728;9.256;2023-05-20T07:48:27;4.13;;;3.83;;
12177;SDS011;6152;48.728;9.256;2023-05-20T07:50:53;4.72;;;3.90;;
12177;SDS011;6152;48.728;9.256;2023-05-20T07:53:23;4.43;;;4.03;;
12177;SDS011;6152;48.728;9.256;2023-05-20T07:55:49;4.55;;;4.00;;
12177;SDS011;6152;48.728;9.256;2023-05-20T07:58:16;5.82;;;5.05;;
12177;SDS011;6152;48.728;9.256;2023-05-20T08:00:43;4.25;;;3.42;;
12177;SDS011;6152;48.728;9.256;2023-05-20T08:03:09;4.30;;;3.90;;
12177;SDS011;6152;48.728;9.256;2023-05-20T08:05:36;4.28;;;3.72;;
12177;SDS011;6152;48.728;9.256;2023-05-20T08:08:02;4.50;;;4.20;;
12177;SDS011;6152;48.728;9.256;2023-05-20T08:10:29;4.57;;;3.83;;
12177;SDS011;6152;48.728;9.256;2023-05-20T08:12:55;4.65;;;3.95;;
12177;SDS011;6152;48.728;9.256;2023-05-20T08:15:21;4.90;;;4.38;;
12177;SDS011;6152;48.728;9.256;2023-05-20T08:17:47;13.02;;;8.55;;
12177;SDS011;6152;48.728;9.256;2023-05-20T08:20:13;7.70;;;6.10;;
12177;SDS011;6152;48.728;9.256;2023-05-20T08:22:40;5.05;;;4.63;;
12177;SDS011;6152;48.728;9.256;2023-05-20T08:25:07;7.20;;;5.22;;
12177;SDS011;6152;48.728;9.256;2023-05-20T08:27:33;6.50;;;5.50;;
12177;SDS011;6152;48.728;9.256;2023-05-20T08:30:00;5.05;;;4.55;;
12177;SDS011;6152;48.728;9.256;2023-05-20T08:32:27;4.88;;;4.45;;
12177;SDS011;6152;48.728;9.256;2023-05-20T08:34:53;4.45;;;4.05;;
12177;SDS011;6152;48.728;9.256;2023-05-20T08:37:19;4.88;;;4.38;;
12177;SDS011;6152;48.728;9.256;2023-05-20T08:39:45;4.78;;;4.20;;
12177;SDS011;6152;48.728;9.256;2023-05-20T08:42:13;5.63;;;4.15;;
12177;SDS011;6152;48.728;9.256;2023-05-20T08:44:40;4.05;;;3.70;;
12177;SDS011;6152;48.728;9.256;2023-05-20T08:47:08;4.80;;;4.22;;
12177;SDS011;6152;48.728;9.256;2023-05-20T08:49:35;5.43;;;4.72;;
12177;SDS011;6152;48.728;9.256;2023-05-20T08:52:02;4.43;;;4.05;;
12177;SDS011;6152;48.728;9.256;2023-05-20T08:54:34;4.53;;;3.97;;
12177;SDS011;6152;48.728;9.256;2023-05-20T08:57:10;4.65;;;4.10;;
12177;SDS011;6152;48.728;9.256;2023-05-20T08:59:41;4.30;;;4.00;;
12177;SDS011;6152;48.728;9.256;2023-05-20T09:02:16;4.63;;;3.15;;
12177;SDS011;6152;48.728;9.256;2023-05-20T09:04:42;4.22;;;3.75;;
12177;SDS011;6152;48.728;9.256;2023-05-20T09:07:08;3.70;;;3.40;;
12177;SDS011;6152;48.728;9.256;2023-05-20T09:09:35;3.83;;;3.53;;
12177;SDS011;6152;48.728;9.256;2023-05-20T09:12:01;3.42;;;3.17;;
12177;SDS011;6152;48.728;9.256;2023-05-20T09:14:28;3.75;;;3.45;;
12177;SDS011;6152;48.728;9.256;2023-05-20T09:16:55;3.80;;;3.47;;
12177;SDS011;6152;48.728;9.256;2023-05-20T09:19:21;3.72;;;3.47;;
12177;SDS011;6152;48.728;9.256;2023-05-20T09:21:49;3.35;;;3.15;;
12177;SDS011;6152;48.728;9.256;2023-05-20T09:24:21;4.28;;;3.88;;
12177;SDS011;6152;48.728;9.256;2023-05-20T09:26:49;4.22;;;3.83;;
12177;SDS011;6152;48.728;9.256;2023-05-20T09:29:16;3.63;;;3.35;;
12177;SDS011;6152;48.728;9.256;2023-05-20T09:31:45;4.05;;;3.42;;
12177;SDS011;6152;48.728;9.256;2023-05-20T09:34:12;3.47;;;3.20;;
12177;SDS011;6152;48.728;9.256;2023-05-20T09:36:38;3.33;;;3.03;;
12177;SDS011;6152;48.728;9.256;2023-05-20T09:39:06;3.80;;;2.85;;
12177;SDS011;6152;48.728;9.256;2023-05-20T09:42:01;3.30;;;3.10;;
12177;SDS011;6152;48.728;9.256;2023-05-20T09:44:40;2.80;;;2.60;;
12177;SDS011;6152;48.728;9.256;2023-05-20T09:47:09;5.03;;;3.13;;
12177;SDS011;6152;48.728;9.256;2023-05-20T09:49:35;3.05;;;2.83;;
12177;SDS011;6152;48.728;9.256;2023-05-20T09:52:03;3.20;;;3.00;;
12177;SDS011;6152;48.728;9.256;2023-05-20T09:54:29;3.13;;;2.92;;
12177;SDS011;6152;48.728;9.256;2023-05-20T09:56:57;3.55;;;3.25;;
12177;SDS011;6152;48.728;9.256;2023-05-20T09:59:25;3.13;;;2.92;;
12177;SDS011;6152;48.728;9.256;2023-05-20T10:01:53;3.00;;;2.83;;
12177;SDS011;6152;48.728;9.256;2023-05-20T10:04:19;3.15;;;2.70;;
12177;SDS011;6152;48.728;9.256;2023-05-20T10:12:22;3.33;;;2.97;;
12177;SDS011;6152;48.728;9.256;2023-05-20T10:18:09;4.78;;;4.38;;
12177;SDS011;6152;48.728;9.256;2023-05-20T10:20:57;3.38;;;3.20;;
12177;SDS011;6152;48.728;9.256;2023-05-20T10:23:26;4.13;;;3.17;;
12177;SDS011;6152;48.728;9.256;2023-05-20T10:25:54;2.80;;;2.65;;
12177;SDS011;6152;48.728;9.256;2023-05-20T10:28:31;3.00;;;2.80;;
12177;SDS011;6152;48.728;9.256;2023-05-20T10:31:00;3.88;;;3.25;;
12177;SDS011;6152;48.728;9.256;2023-05-20T10:33:27;3.35;;;3.05;;
12177;SDS011;6152;48.728;9.256;2023-05-20T10:35:57;2.60;;;2.50;;
12177;SDS011;6152;48.728;9.256;2023-05-20T10:38:24;3.28;;;3.08;;
12177;SDS011;6152;48.728;9.256;2023-05-20T10:40:51;3.17;;;2.97;;
12177;SDS011;6152;48.728;9.256;2023-05-20T10:43:26;2.80;;;2.60;;
12177;SDS011;6152;48.728;9.256;2023-05-20T10:45:54;2.67;;;2.50;;
12177;SDS011;6152;48.728;9.256;2023-05-20T10:48:29;2.65;;;2.45;;
12177;SDS011;6152;48.728;9.256;2023-05-20T10:50:57;2.70;;;2.38;;
12177;SDS011;6152;48.728;9.256;2023-05-20T10:53:28;2.90;;;2.70;;
12177;SDS011;6152;48.728;9.256;2023-05-20T10:56:02;2.80;;;2.70;;
12177;SDS011;6152;48.728;9.256;2023-05-20T10:58:35;2.75;;;2.55;;
12177;SDS011;6152;48.728;9.256;2023-05-20T11:01:02;2.72;;;2.53;;
12177;SDS011;6152;48.728;9.256;2023-05-20T11:03:28;3.38;;;3.17;;
12177;SDS011;6152;48.728;9.256;2023-05-20T11:05:55;2.70;;;2.50;;
12177;SDS011;6152;48.728;9.256;2023-05-20T11:08:21;2.80;;;2.60;;
12177;SDS011;6152;48.728;9.256;2023-05-20T11:10:51;2.85;;;2.65;;
12177;SDS011;6152;48.728;9.256;2023-05-20T11:13:19;3.55;;;2.88;;
12177;SDS011;6152;48.728;9.256;2023-05-20T11:15:47;5.00;;;4.60;;
12177;SDS011;6152;48.728;9.256;2023-05-20T11:18:14;2.80;;;2.70;;
12177;SDS011;6152;48.728;9.256;2023-05-20T11:20:40;2.67;;;2.50;;
12177;SDS011;6152;48.728;9.256;2023-05-20T11:23:10;2.90;;;2.70;;
12177;SDS011;6152;48.728;9.256;2023-05-20T11:25:38;3.40;;;2.90;;
12177;SDS011;6152;48.728;9.256;2023-05-20T11:28:07;3.40;;;3.00;;
12177;SDS011;6152;48.728;9.256;2023-05-20T11:30:38;3.35;;;3.15;;
12177;SDS011;6152;48.728;9.256;2023-05-20T11:33:05;2.90;;;2.80;;
12177;SDS011;6152;48.728;9.256;2023-05-20T11:35:35;2.47;;;2.30;;
12177;SDS011;6152;48.728;9.256;2023-05-20T11:38:09;3.40;;;3.20;;
12177;SDS011;6152;48.728;9.256;2023-05-20T11:40:35;4.75;;;2.63;;
12177;SDS011;6152;48.728;9.256;2023-05-20T11:43:01;3.85;;;3.28;;
12177;SDS011;6152;48.728;9.256;2023-05-20T11:45:40;3.03;;;2.83;;
12177;SDS011;6152;48.728;9.256;2023-05-20T11:48:27;4.43;;;3.65;;
12177;SDS011;6152;48.728;9.256;2023-05-20T11:50:54;2.50;;;2.30;;
12177;SDS011;6152;48.728;9.256;2023-05-20T11:53:21;3.85;;;2.90;;
12177;SDS011;6152;48.728;9.256;2023-05-20T11:55:49;4.53;;;2.70;;
12177;SDS011;6152;48.728;9.256;2023-05-20T11:58:21;2.85;;;2.60;;
12177;SDS011;6152;48.728;9.256;2023-05-20T12:00:52;2.70;;;2.50;;
12177;SDS011;6152;48.728;9.256;2023-05-20T12:03:18;3.42;;;2.83;;
12177;SDS011;6152;48.728;9.256;2023-05-20T12:05:44;2.85;;;2.65;;
12177;SDS011;6152;48.728;9.256;2023-05-20T12:08:12;3.05;;;2.85;;
12177;SDS011;6152;48.728;9.256;2023-05-20T12:10:39;3.67;;;2.92;;
12177;SDS011;6152;48.728;9.256;2023-05-20T12:13:06;3.03;;;2.83;;
12177;SDS011;6152;48.728;9.256;2023-05-20T12:15:36;3.10;;;2.90;;
12177;SDS011;6152;48.728;9.256;2023-05-20T12:18:02;2.67;;;2.47;;
12177;SDS011;6152;48.728;9.256;2023-05-20T12:20:29;3.85;;;3.22;;
12177;SDS011;6152;48.728;9.256;2023-05-20T12:22:58;2.60;;;2.50;;
12177;SDS011;6152;48.728;9.256;2023-05-20T12:25:24;3.67;;;3.17;;
12177;SDS011;6152;48.728;9.256;2023-05-20T12:27:51;3.10;;;2.90;;
12177;SDS011;6152;48.728;9.256;2023-05-20T12:30:21;2.75;;;2.55;;
12177;SDS011;6152;48.728;9.256;2023-05-20T12:32:48;2.33;;;2.22;;
12177;SDS011;6152;48.728;9.256;2023-05-20T12:35:16;3.78;;;2.95;;
12177;SDS011;6152;48.728;9.256;2023-05-20T12:37:46;3.15;;;2.95;;
12177;SDS011;6152;48.728;9.256;2023-05-20T12:40:13;4.28;;;2.85;;
12177;SDS011;6152;48.728;9.256;2023-05-20T12:42:39;3.10;;;2.60;;
12177;SDS011;6152;48.728;9.256;2023-05-20T12:45:06;3.10;;;2.80;;
12177;SDS011;6152;48.728;9.256;2023-05-20T12:47:34;2.88;;;2.67;;
12177;SDS011;6152;48.728;9.256;2023-05-20T12:50:00;3.38;;;3.08;;
12177;SDS011;6152;48.728;9.256;2023-05-20T12:52:27;2.92;;;2.72;;
12177;SDS011;6152;48.728;9.256;2023-05-20T12:54:54;3.22;;;2.78;;
12177;SDS011;6152;48.728;9.256;2023-05-20T12:57:21;3.08;;;2.88;;
12177;SDS011;6152;48.728;9.256;2023-05-20T12:59:48;3.50;;;3.13;;
12177;SDS011;6152;48.728;9.256;2023-05-20T13:02:14;2.85;;;2.65;;
12177;SDS011;6152;48.728;9.256;2023-05-20T13:04:41;2.50;;;2.35;;
12177;SDS011;6152;48.728;9.256;2023-05-20T13:07:07;2.78;;;2.58;;
12177;SDS011;6152;48.728;9.256;2023-05-20T13:09:33;2.90;;;2.58;;
12177;SDS011;6152;48.728;9.256;2023-05-20T13:11:59;3.08;;;2.80;;
12177;SDS011;6152;48.728;9.256;2023-05-20T13:14:26;2.80;;;2.60;;
12177;SDS011;6152;48.728;9.256;2023-05-20T13:16:52;3.05;;;2.78;;
12177;SDS011;6152;48.728;9.256;2023-05-20T13:19:22;4.90;;;3.13;;
12177;SDS011;6152;48.728;9.256;2023-05-20T13:21:50;3.08;;;2.88;;
12177;SDS011;6152;48.728;9.256;2023-05-20T13:24:18;3.25;;;2.95;;
12177;SDS011;6152;48.728;9.256;2023-05-20T13:26:44;3.30;;;3.00;;
12177;SDS011;6152;48.728;9.256;2023-05-20T13:29:11;2.85;;;2.63;;
12177;SDS011;6152;48.728;9.256;2023-05-20T13:31:37;3.33;;;3.03;;
12177;SDS011;6152;48.728;9.256;2023-05-20T13:34:04;2.80;;;2.60;;
12177;SDS011;6152;48.728;9.256;2023-05-20T13:36:30;3.30;;;3.10;;
12177;SDS011;6152;48.728;9.256;2023-05-20T13:38:57;3.33;;;2.78;;
12177;SDS011;6152;48.728;9.256;2023-05-20T13:41:23;3.60;;;3.30;;
12177;SDS011;6152;48.728;9.256;2023-05-20T13:43:50;2.75;;;2.50;;
12177;SDS011;6152;48.728;9.256;2023-05-20T13:46:16;3.38;;;3.08;;
12177;SDS011;6152;48.728;9.256;2023-05-20T13:48:43;2.88;;;2.67;;
12177;SDS011;6152;48.728;9.256;2023-05-20T13:51:09;2.97;;;2.78;;
12177;SDS011;6152;48.728;9.256;2023-05-20T13:53:35;3.25;;;2.63;;
12177;SDS011;6152;48.728;9.256;2023-05-20T13:56:01;3.03;;;2.83;;
12177;SDS011;6152;48.728;9.256;2023-05-20T13:58:27;4.55;;;3.20;;
12177;SDS011;6152;48.728;9.256;2023-05-20T14:00:53;4.07;;;3.28;;
12177;SDS011;6152;48.728;9.256;2023-05-20T14:03:20;3.15;;;2.95;;
12177;SDS011;6152;48.728;9.256;2023-05-20T14:05:46;2.92;;;2.72;;
12177;SDS011;6152;48.728;9.256;2023-05-20T14:08:12;3.03;;;2.83;;
12177;SDS011;6152;48.728;9.256;2023-05-20T14:10:38;3.00;;;2.80;;
12177;SDS011;6152;48.728;9.256;2023-05-20T14:13:05;2.70;;;2.53;;
12177;SDS011;6152;48.728;9.256;2023-05-20T14:15:32;2.83;;;2.58;;
12177;SDS011;6152;48.728;9.256;2023-05-20T14:17:58;2.75;;;2.55;;
12177;SDS011;6152;48.728;9.256;2023-05-20T14:20:24;4.10;;;2.90;;
12177;SDS011;6152;48.728;9.256;2023-05-20T14:22:51;2.70;;;2.50;;
12177;SDS011;6152;48.728;9.256;2023-05-20T14:25:18;2.80;;;2.60;;
12177;SDS011;6152;48.728;9.256;2023-05-20T14:27:44;3.30;;;3.00;;
12177;SDS011;6152;48.728;9.256;2023-05-20T14:30:10;4.20;;;3.00;;
12177;SDS011;6152;48.728;9.256;2023-05-20T14:32:36;2.38;;;2.17;;
12177;SDS011;6152;48.728;9.256;2023-05-20T14:35:03;2.85;;;2.63;;
12177;SDS011;6152;48.728;9.256;2023-05-20T14:37:30;2.72;;;2.33;;
12177;SDS011;6152;48.728;9.256;2023-05-20T14:39:56;4.00;;;2.50;;
12177;SDS011;6152;48.728;9.256;2023-05-20T14:42:22;3.00;;;2.78;;
12177;SDS011;6152;48.728;9.256;2023-05-20T14:44:48;3.47;;;2.53;;
12177;SDS011;6152;48.728;9.256;2023-05-20T14:47:14;3.05;;;2.75;;
12177;SDS011;6152;48.728;9.256;2023-05-20T14:49:44;3.00;;;2.80;;
12177;SDS011;6152;48.728;9.256;2023-05-20T14:52:11;3.15;;;2.85;;
12177;SDS011;6152;48.728;9.256;2023-05-20T14:54:37;2.92;;;2.63;;
12177;SDS011;6152;48.728;9.256;2023-05-20T14:57:03;3.60;;;2.60;;
12177;SDS011;6152;48.728;9.256;2023-05-20T14:59:30;2.78;;;2.58;;
12177;SDS011;6152;48.728;9.256;2023-05-20T15:01:57;2.72;;;2.53;;
12177;SDS011;6152;48.728;9.256;2023-05-20T15:04:23;2.75;;;2.63;;
12177;SDS011;6152;48.728;9.256;2023-05-20T15:06:50;3.28;;;2.83;;
12177;SDS011;6152;48.728;9.256;2023-05-20T15:09:16;2.92;;;2.70;;